createdAt,value
2019-03-27T00:01:10.927Z,84.93
2019-03-27T00:03:51.920Z,84.70
2019-03-27T00:06:33.173Z,85.53
2019-03-27T00:09:14.116Z,85.96
2019-03-27T00:11:55.103Z,85.99
2019-03-27T00:14:36.131Z,86.25
2019-03-27T00:17:16.576Z,86.49
2019-03-27T00:19:57.648Z,85.98
2019-03-27T00:22:38.619Z,85.56
2019-03-27T00:25:19.897Z,84.80
2019-03-27T00:28:00.533Z,84.78
2019-03-27T00:30:41.504Z,85.26
2019-03-27T00:33:22.784Z,87.00
2019-03-27T00:36:03.388Z,87.68
2019-03-27T00:38:44.379Z,87.60
2019-03-27T00:41:25.018Z,88.01
2019-03-27T00:44:06.322Z,87.79
2019-03-27T00:46:47.531Z,87.35
2019-03-27T00:49:28.986Z,87.64
2019-03-27T00:52:09.783Z,87.51
2019-03-27T00:54:49.690Z,87.38
2019-03-27T00:57:30.086Z,86.49
2019-03-27T01:00:10.613Z,85.83
2019-03-27T01:02:51.043Z,84.78
2019-03-27T01:05:31.320Z,84.28
2019-03-27T01:08:11.699Z,83.61
2019-03-27T01:10:52.079Z,82.99
2019-03-27T01:13:32.691Z,82.08
2019-03-27T01:16:12.762Z,82.42
2019-03-27T01:18:52.828Z,82.47
2019-03-27T01:21:33.127Z,80.73
2019-03-27T01:24:13.640Z,79.77
2019-03-27T01:26:54.548Z,78.94
2019-03-27T01:29:35.210Z,78.14
2019-03-27T01:32:16.295Z,78.71
2019-03-27T01:34:57.207Z,78.67
2019-03-27T01:37:38.101Z,77.85
2019-03-27T01:40:18.981Z,77.41
2019-03-27T01:42:59.769Z,76.60
2019-03-27T01:45:52.493Z,75.80
2019-03-27T01:48:22.468Z,75.37
2019-03-27T01:51:04.260Z,73.33
2019-03-27T01:53:45.296Z,73.55
2019-03-27T01:56:25.766Z,72.02
2019-03-27T01:59:06.599Z,72.84
2019-03-27T02:01:47.176Z,71.89
2019-03-27T02:04:27.916Z,71.93
2019-03-27T02:07:08.523Z,67.95
2019-03-27T02:09:49.157Z,68.22
2019-03-27T02:12:30.081Z,67.63
2019-03-27T02:15:11.007Z,67.86
2019-03-27T02:17:51.956Z,66.49
2019-03-27T02:20:32.737Z,65.06
2019-03-27T02:23:13.645Z,64.46
2019-03-27T02:25:54.315Z,65.92
2019-03-27T03:09:49.313Z,57.54
2019-03-27T03:12:30.408Z,56.28
2019-03-27T03:15:11.017Z,53.58
2019-03-27T03:17:51.973Z,54.03
2019-03-27T03:20:33.212Z,54.13
2019-03-27T03:23:14.515Z,55.77
2019-03-27T03:25:54.961Z,56.68
2019-03-27T05:54:42.829Z,46.32
2019-03-27T05:57:25.565Z,47.15
2019-03-27T06:00:08.799Z,45.59
2019-03-27T06:02:53.747Z,46.21
2019-03-27T06:08:21.443Z,44.82
2019-03-27T06:16:33.564Z,46.68
2019-03-27T06:19:18.635Z,47.19
2019-03-27T06:21:59.869Z,46.26
2019-03-27T06:24:45.539Z,46.62
2019-03-27T06:48:25.498Z,48.25
2019-03-27T06:50:53.796Z,47.38
2019-03-27T06:53:33.708Z,45.30
2019-03-27T06:56:14.273Z,46.26
2019-03-27T06:58:55.184Z,46.08
2019-03-27T07:01:36.360Z,46.18
2019-03-27T07:04:16.780Z,45.91
2019-03-27T07:06:57.126Z,48.87
2019-03-27T07:09:37.850Z,45.16
2019-03-27T07:12:21.617Z,44.44
2019-03-27T07:15:02.099Z,46.21
2019-03-27T07:17:42.929Z,46.38
2019-03-27T07:20:23.183Z,45.37
2019-03-27T07:23:04.274Z,46.42
2019-03-27T07:25:44.964Z,44.74
2019-03-27T07:28:25.806Z,44.68
2019-03-27T07:31:06.443Z,46.04
2019-03-27T07:33:46.479Z,45.20
2019-03-27T07:36:27.024Z,44.56
2019-03-27T07:39:11.378Z,44.63
2019-03-27T07:41:48.433Z,45.33
2019-03-27T07:44:29.365Z,45.72
2019-03-27T07:47:09.702Z,44.66
2019-03-27T07:49:50.802Z,44.74
2019-03-27T07:52:37.158Z,44.96
2019-03-27T07:55:19.962Z,43.49
2019-03-27T07:58:00.585Z,45.13
2019-03-27T08:00:42.766Z,45.21
2019-03-27T08:03:23.334Z,46.04
2019-03-27T08:06:03.870Z,43.36
2019-03-27T08:08:45.001Z,41.92
2019-03-27T08:11:26.334Z,43.00
2019-03-27T08:14:08.327Z,41.77
2019-03-27T08:16:50.188Z,42.74
2019-03-27T08:21:46.567Z,42.97
2019-03-27T08:24:27.161Z,44.14
2019-03-27T08:29:22.761Z,44.70
2019-03-27T08:32:03.093Z,44.57
2019-03-27T08:34:43.576Z,43.88
2019-03-27T08:37:24.020Z,43.68
2019-03-27T08:44:36.286Z,44.49
2019-03-27T08:47:16.976Z,45.08
2019-03-27T08:49:57.771Z,46.51
2019-03-27T08:52:38.050Z,46.45
2019-03-27T08:55:21.150Z,46.14
2019-03-27T08:58:02.766Z,45.20
2019-03-27T09:00:43.725Z,46.41
2019-03-27T09:03:24.424Z,47.59
2019-03-27T09:06:05.748Z,47.97
2019-03-27T09:08:46.653Z,47.20
2019-03-27T09:11:29.394Z,47.08
2019-03-27T09:14:09.902Z,47.31
2019-03-27T09:16:50.439Z,48.85
2019-03-27T09:19:36.154Z,48.32
2019-03-27T09:22:11.802Z,48.64
2019-03-27T09:24:52.708Z,49.53
2019-03-27T09:27:33.321Z,48.50
2019-03-27T09:30:14.322Z,48.69
2019-03-27T09:32:54.674Z,47.68
2019-03-27T09:35:35.005Z,46.88
2019-03-27T09:38:15.594Z,44.97
2019-03-27T09:40:56.262Z,43.51
2019-03-27T09:43:36.921Z,43.95
2019-03-27T09:46:21.781Z,45.50
2019-03-27T09:49:05.165Z,45.09
2019-03-27T09:51:46.607Z,43.66
2019-03-27T09:54:26.901Z,43.40
2019-03-27T09:57:07.321Z,44.00
2019-03-27T09:59:47.485Z,43.72
2019-03-27T10:02:28.031Z,44.51
2019-03-27T10:05:08.676Z,44.62
2019-03-27T10:07:48.945Z,45.40
2019-03-27T10:10:29.332Z,46.59
2019-03-27T10:13:10.479Z,45.15
2019-03-27T10:15:51.654Z,45.31
2019-03-27T10:18:33.094Z,46.23
2019-03-27T10:21:15.204Z,46.36
2019-03-27T10:23:55.682Z,45.95
2019-03-27T10:26:42.451Z,46.44
2019-03-27T10:29:23.331Z,47.12
2019-03-27T10:32:04.422Z,46.97
2019-03-27T10:34:45.972Z,47.27
2019-03-27T10:37:26.459Z,46.85
2019-03-27T10:40:06.511Z,46.30
2019-03-27T10:42:47.244Z,46.56
2019-03-27T10:45:27.770Z,46.28
2019-03-27T10:48:08.637Z,46.90
2019-03-27T10:50:49.914Z,45.33
2019-03-27T10:53:30.541Z,44.88
2019-03-27T10:56:12.287Z,45.98
2019-03-27T10:58:53.460Z,45.73
2019-03-27T11:01:34.223Z,46.66
2019-03-27T11:04:15.038Z,46.54
2019-03-27T11:06:55.519Z,47.36
2019-03-27T11:09:35.656Z,47.31
2019-03-27T11:12:15.895Z,46.56
2019-03-27T11:14:57.016Z,47.47
2019-03-27T11:17:38.132Z,47.69
2019-03-27T11:20:30.371Z,49.40
2019-03-27T11:22:59.109Z,48.48
2019-03-27T11:25:39.877Z,48.73
2019-03-27T11:28:20.521Z,49.70
2019-03-27T11:31:01.193Z,49.91
2019-03-27T11:33:41.885Z,50.12
2019-03-27T11:36:22.491Z,49.86
2019-03-27T11:39:03.644Z,50.44
2019-03-27T11:41:44.211Z,50.47
2019-03-27T11:44:24.651Z,51.69
2019-03-27T11:47:04.807Z,52.27
2019-03-27T11:49:45.422Z,53.11
2019-03-27T11:52:29.321Z,52.55
2019-03-27T11:55:06.841Z,54.31
2019-03-27T11:57:46.989Z,54.80
2019-03-27T12:00:28.035Z,54.52
2019-03-27T12:03:08.218Z,56.37
2019-03-27T12:05:48.883Z,57.06
2019-03-27T12:08:29.534Z,57.06
2019-03-27T12:11:09.711Z,57.38
2019-03-27T12:13:50.687Z,59.02
2019-03-27T12:16:31.282Z,59.89
2019-03-27T12:19:12.003Z,60.11
2019-03-27T12:21:54.816Z,61.93
2019-03-27T12:24:34.062Z,62.15
2019-03-27T12:27:15.053Z,62.31
2019-03-27T12:29:56.362Z,62.36
2019-03-27T12:32:37.962Z,62.08
2019-03-27T12:35:19.253Z,62.79
2019-03-27T12:37:59.962Z,63.83
2019-03-27T12:40:41.039Z,64.80
2019-03-27T12:43:22.565Z,68.33
2019-03-27T12:46:03.408Z,69.25
2019-03-27T12:48:44.916Z,68.65
2019-03-27T12:51:26.051Z,68.90
2019-03-27T12:54:06.495Z,69.54
2019-03-27T12:56:47.419Z,70.83
2019-03-27T12:59:29.190Z,73.52
2019-03-27T13:02:10.770Z,72.66
2019-03-27T13:04:52.229Z,72.31
2019-03-27T13:07:33.577Z,72.87
2019-03-27T13:10:14.830Z,72.67
2019-03-27T13:12:56.203Z,73.03
2019-03-27T13:15:37.169Z,73.93
2019-03-27T13:18:17.849Z,74.58
2019-03-27T13:20:58.664Z,74.94
2019-03-27T13:23:40.040Z,74.38
2019-03-27T13:26:21.325Z,76.33
2019-03-27T13:29:04.359Z,76.87
2019-03-27T13:31:44.602Z,78.21
2019-03-27T13:34:25.362Z,77.68
2019-03-27T13:37:05.846Z,75.78
2019-03-27T13:39:46.729Z,74.56
2019-03-27T13:42:27.735Z,75.11
2019-03-27T13:45:08.879Z,75.04
2019-03-27T13:47:49.951Z,75.75
2019-03-27T13:50:31.799Z,76.38
2019-03-27T13:53:12.739Z,77.06
2019-03-27T13:55:54.089Z,76.57
2019-03-27T13:58:35.542Z,76.32
2019-03-27T14:01:17.156Z,76.42
2019-03-27T14:03:58.921Z,76.61
2019-03-27T14:06:40.515Z,76.53
2019-03-27T14:09:22.857Z,77.20
2019-03-27T14:12:04.030Z,77.18
2019-03-27T14:14:50.404Z,77.05
2019-03-27T14:17:27.760Z,77.11
2019-03-27T14:20:10.101Z,77.24
2019-03-27T14:22:51.549Z,77.62
2019-03-27T14:25:33.949Z,77.66
2019-03-27T14:28:16.738Z,78.00
2019-03-27T14:30:58.452Z,78.12
2019-03-27T14:33:40.038Z,78.29
2019-03-27T14:36:25.356Z,79.06
2019-03-27T14:39:06.836Z,79.39
2019-03-27T14:41:49.042Z,79.35
2019-03-27T14:44:30.138Z,79.00
2019-03-27T14:47:13.169Z,78.88
2019-03-27T14:49:57.391Z,79.00
2019-03-27T14:52:38.610Z,79.03
2019-03-27T14:55:21.892Z,79.50
2019-03-27T14:58:07.502Z,79.49
2019-03-27T15:00:49.533Z,79.12
2019-03-27T15:03:31.179Z,79.58
2019-03-27T15:06:14.639Z,81.27
2019-03-27T15:08:55.715Z,81.84
2019-03-27T15:11:42.490Z,81.23
2019-03-27T15:14:28.285Z,81.02
2019-03-27T15:17:09.754Z,80.89
2019-03-27T15:19:51.382Z,81.36
2019-03-27T15:22:32.434Z,81.16
2019-03-27T15:25:13.249Z,81.50
2019-03-27T15:27:54.462Z,81.22
2019-03-27T15:30:37.178Z,81.84
2019-03-27T15:33:17.962Z,82.15
2019-03-27T15:35:58.623Z,82.07
2019-03-27T15:38:39.403Z,82.21
2019-03-27T15:41:20.520Z,82.80
2019-03-27T15:44:01.811Z,82.49
2019-03-27T15:46:42.692Z,82.61
2019-03-27T15:49:24.042Z,82.74
2019-03-27T15:52:05.003Z,82.82
2019-03-27T15:54:45.787Z,83.33
2019-03-27T15:57:26.784Z,82.57
2019-03-27T16:00:07.134Z,83.20
2019-03-27T16:02:49.182Z,83.77
2019-03-27T16:05:29.554Z,84.08
2019-03-27T16:08:10.170Z,83.76
2019-03-27T16:10:51.082Z,84.20
2019-03-27T16:13:32.005Z,83.99
2019-03-27T16:16:13.012Z,84.12
2019-03-27T16:18:53.326Z,84.63
2019-03-27T16:21:37.448Z,84.31
2019-03-27T16:24:15.897Z,84.30
2019-03-27T16:27:04.310Z,84.25
2019-03-27T16:29:38.457Z,84.47
2019-03-27T16:32:19.224Z,84.32
2019-03-27T16:35:00.681Z,84.18
2019-03-27T16:37:41.312Z,83.86
2019-03-27T16:40:22.384Z,84.44
2019-03-27T16:43:03.245Z,84.64
2019-03-27T16:45:43.771Z,84.70
2019-03-27T16:48:25.173Z,84.04
2019-03-27T16:51:05.860Z,84.08
2019-03-27T16:53:47.086Z,84.10
2019-03-27T16:56:28.115Z,84.29
2019-03-27T16:59:09.001Z,84.22
2019-03-27T17:01:49.974Z,83.48
2019-03-27T17:04:30.565Z,83.42
2019-03-27T17:07:10.922Z,82.67
2019-03-27T17:09:52.522Z,82.92
2019-03-27T17:12:34.007Z,82.60
2019-03-27T17:15:15.732Z,82.06
2019-03-27T17:17:56.780Z,81.70
2019-03-27T17:20:38.385Z,81.80
2019-03-27T17:23:19.561Z,81.09
2019-03-27T17:26:01.227Z,81.70
2019-03-27T17:28:41.693Z,81.35
2019-03-27T17:31:22.551Z,81.88
2019-03-27T17:34:03.731Z,81.24
2019-03-27T17:36:44.693Z,81.25
2019-03-27T17:39:25.675Z,81.73
2019-03-27T17:42:06.602Z,81.80
2019-03-27T17:44:47.338Z,81.13
2019-03-27T17:47:28.526Z,81.63
2019-03-27T17:50:09.162Z,81.58
2019-03-27T17:52:49.674Z,81.25
2019-03-27T17:55:30.769Z,81.80
2019-03-27T17:58:11.035Z,81.97
2019-03-27T18:00:52.012Z,82.54
2019-03-27T18:03:32.945Z,82.43
2019-03-27T18:06:13.754Z,82.88
2019-03-27T18:08:54.765Z,82.83
2019-03-27T18:11:36.201Z,82.42
2019-03-27T18:14:17.172Z,81.80
2019-03-27T18:16:57.856Z,82.67
2019-03-27T18:19:38.573Z,83.45
2019-03-27T18:22:19.168Z,83.51
2019-03-27T18:25:00.342Z,83.93
2019-03-27T18:27:40.575Z,83.59
2019-03-27T18:30:21.997Z,84.24
2019-03-27T18:33:02.931Z,85.02
2019-03-27T18:35:43.832Z,85.22
2019-03-27T18:38:24.630Z,85.19
2019-03-27T18:41:05.496Z,85.12
2019-03-27T18:43:46.178Z,84.65
2019-03-27T18:46:27.322Z,85.03
2019-03-27T18:49:10.445Z,85.42
2019-03-27T18:51:51.650Z,85.99
2019-03-27T18:54:32.533Z,86.42
2019-03-27T18:57:13.497Z,85.75
2019-03-27T18:59:54.085Z,85.67
2019-03-27T19:02:35.083Z,85.32
2019-03-27T19:05:16.364Z,84.34
2019-03-27T19:07:57.327Z,84.05
2019-03-27T19:10:38.303Z,84.53
2019-03-27T19:13:19.886Z,84.62
2019-03-27T19:16:01.315Z,84.54
2019-03-27T19:18:42.947Z,84.82
2019-03-27T19:21:23.866Z,84.36
2019-03-27T19:24:14.823Z,84.46
2019-03-27T19:26:46.606Z,84.32
2019-03-27T19:29:27.882Z,83.94
2019-03-27T19:32:09.810Z,84.35
2019-03-27T19:34:51.200Z,84.07
2019-03-27T19:37:32.363Z,84.15
2019-03-27T19:40:13.969Z,84.01
2019-03-27T19:42:55.761Z,84.20
2019-03-27T19:45:37.522Z,84.66
2019-03-27T19:48:18.570Z,84.82
2019-03-27T19:50:59.472Z,84.94
2019-03-27T19:53:41.026Z,85.90
2019-03-27T19:56:22.604Z,85.81
2019-03-27T19:59:03.884Z,85.89
2019-03-27T20:01:44.362Z,85.70
2019-03-27T20:04:25.664Z,85.42
2019-03-27T20:07:06.766Z,85.23
2019-03-27T20:09:47.423Z,85.81
2019-03-27T20:12:28.269Z,85.72
2019-03-27T20:15:12.465Z,85.99
2019-03-27T20:17:50.456Z,85.15
2019-03-27T20:20:31.636Z,85.70
2019-03-27T20:23:15.159Z,85.17
2019-03-27T20:25:54.455Z,85.52
2019-03-27T20:28:35.153Z,85.85
2019-03-27T20:31:15.728Z,85.67
2019-03-27T20:33:57.017Z,85.92
2019-03-27T20:36:38.576Z,86.31
2019-03-27T20:39:19.573Z,86.75
2019-03-27T20:42:00.227Z,86.55
2019-03-27T20:44:41.242Z,87.65
2019-03-27T20:47:21.685Z,87.50
2019-03-27T20:50:02.023Z,88.36
2019-03-27T20:52:42.682Z,87.89
2019-03-27T20:55:30.017Z,88.14
2019-03-27T20:58:05.330Z,88.09
2019-03-27T21:00:46.033Z,88.20
2019-03-27T21:03:26.620Z,88.15
2019-03-27T21:06:08.540Z,88.41
2019-03-27T21:08:49.658Z,87.85
2019-03-27T21:11:30.629Z,87.87
2019-03-27T21:14:11.496Z,87.89
2019-03-27T21:16:52.497Z,88.52
2019-03-27T21:19:35.980Z,88.67
2019-03-27T21:22:14.937Z,89.30
2019-03-27T21:25:07.617Z,88.80
2019-03-27T21:27:36.535Z,88.54
2019-03-27T21:30:17.178Z,88.96
2019-03-27T21:32:57.206Z,88.36
2019-03-27T21:35:37.584Z,88.22
2019-03-27T21:38:18.090Z,88.62
2019-03-27T21:40:58.815Z,87.95
2019-03-27T21:43:39.454Z,87.91
2019-03-27T21:46:20.134Z,88.45
2019-03-27T21:49:00.697Z,88.51
2019-03-27T21:51:41.703Z,88.59
2019-03-27T21:54:22.352Z,88.94
2019-03-27T21:57:02.990Z,89.53
2019-03-27T21:59:43.595Z,89.42
2019-03-27T22:02:24.539Z,89.46
2019-03-27T22:05:05.482Z,89.85
2019-03-27T22:07:46.189Z,89.38
2019-03-27T22:10:27.096Z,89.21
2019-03-27T22:13:08.257Z,88.63
2019-03-27T22:15:49.023Z,88.45
2019-03-27T22:18:29.983Z,88.30
2019-03-27T22:21:10.353Z,88.31
2019-03-27T22:23:51.251Z,88.57
2019-03-27T22:26:31.744Z,88.55
2019-03-27T22:29:12.531Z,88.63
2019-03-27T22:31:53.191Z,88.39
2019-03-27T22:34:33.823Z,88.66
2019-03-27T22:37:14.858Z,88.95
2019-03-27T22:39:55.419Z,88.28
2019-03-27T22:42:36.067Z,88.02
2019-03-27T22:45:16.434Z,87.39
2019-03-27T22:47:56.763Z,87.88
2019-03-27T22:50:37.398Z,87.76
2019-03-27T22:53:18.212Z,87.39
2019-03-27T22:55:59.244Z,87.99
2019-03-27T22:58:40.278Z,87.86
2019-03-27T23:01:20.858Z,88.12
2019-03-27T23:04:00.937Z,87.85
2019-03-27T23:06:41.882Z,87.88
2019-03-27T23:09:22.460Z,88.09
2019-03-27T23:12:03.097Z,88.34
2019-03-27T23:14:44.049Z,88.45
2019-03-27T23:17:24.700Z,87.94
2019-03-27T23:20:05.337Z,87.89
2019-03-27T23:22:46.202Z,88.14
2019-03-27T23:25:27.034Z,88.07
2019-03-27T23:28:08.225Z,88.04
2019-03-27T23:30:49.490Z,87.79
2019-03-27T23:33:29.902Z,88.14
2019-03-27T23:36:11.142Z,87.98
2019-03-27T23:38:52.441Z,88.22
2019-03-27T23:41:33.330Z,88.15
2019-03-27T23:44:14.115Z,88.10
2019-03-27T23:46:54.993Z,87.75
2019-03-27T23:49:35.951Z,88.01
2019-03-27T23:52:17.034Z,87.56
2019-03-27T23:54:58.470Z,87.18
2019-03-27T23:57:39.411Z,87.57
